sensor_id;sensor_type;location;lat;lon;timestamp;P1;durP1;ratioP1;P2;durP2;ratioP2
10059;SDS011;5069;49.306;8.636;2023-09-08T00:00:42;5.60;;;5.10;;
10059;SDS011;5069;49.306;8.636;2023-09-08T00:03:43;6.90;;;4.53;;
10059;SDS011;5069;49.306;8.636;2023-09-08T00:06:44;4.60;;;4.20;;
10059;SDS011;5069;49.306;8.636;2023-09-08T00:09:47;5.20;;;4.50;;
10059;SDS011;5069;49.306;8.636;2023-09-08T00:12:48;5.17;;;4.67;;
10059;SDS011;5069;49.306;8.636;2023-09-08T00:15:50;9.53;;;4.93;;
10059;SDS011;5069;49.306;8.636;2023-09-08T00:18:51;5.03;;;4.53;;
10059;SDS011;5069;49.306;8.636;2023-09-08T00:21:53;6.30;;;4.93;;
10059;SDS011;5069;49.306;8.636;2023-09-08T00:24:54;4.83;;;4.43;;
10059;SDS011;5069;49.306;8.636;2023-09-08T00:27:56;7.67;;;6.87;;
10059;SDS011;5069;49.306;8.636;2023-09-08T00:30:58;5.20;;;4.70;;
10059;SDS011;5069;49.306;8.636;2023-09-08T00:34:01;6.87;;;5.03;;
10059;SDS011;5069;49.306;8.636;2023-09-08T00:37:03;5.93;;;4.50;;
10059;SDS011;5069;49.306;8.636;2023-09-08T00:40:08;5.80;;;4.83;;
10059;SDS011;5069;49.306;8.636;2023-09-08T00:43:11;5.77;;;4.40;;
10059;SDS011;5069;49.306;8.636;2023-09-08T00:46:12;8.67;;;4.87;;
10059;SDS011;5069;49.306;8.636;2023-09-08T00:49:14;5.40;;;4.80;;
10059;SDS011;5069;49.306;8.636;2023-09-08T00:52:15;5.50;;;4.60;;
10059;SDS011;5069;49.306;8.636;2023-09-08T00:55:17;6.17;;;4.40;;
10059;SDS011;5069;49.306;8.636;2023-09-08T00:58:19;5.97;;;4.60;;
10059;SDS011;5069;49.306;8.636;2023-09-08T01:01:20;6.10;;;4.47;;
10059;SDS011;5069;49.306;8.636;2023-09-08T01:04:22;5.87;;;4.53;;
10059;SDS011;5069;49.306;8.636;2023-09-08T01:07:24;7.80;;;4.60;;
10059;SDS011;5069;49.306;8.636;2023-09-08T01:10:25;6.00;;;4.70;;
10059;SDS011;5069;49.306;8.636;2023-09-08T01:13:27;6.00;;;4.60;;
10059;SDS011;5069;49.306;8.636;2023-09-08T01:16:29;6.73;;;4.67;;
10059;SDS011;5069;49.306;8.636;2023-09-08T01:19:30;5.60;;;5.00;;
10059;SDS011;5069;49.306;8.636;2023-09-08T01:22:55;5.70;;;4.87;;
10059;SDS011;5069;49.306;8.636;2023-09-08T01:26:10;7.33;;;5.20;;
10059;SDS011;5069;49.306;8.636;2023-09-08T01:29:18;6.87;;;5.10;;
10059;SDS011;5069;49.306;8.636;2023-09-08T01:32:21;8.83;;;4.80;;
10059;SDS011;5069;49.306;8.636;2023-09-08T01:35:23;7.40;;;4.63;;
10059;SDS011;5069;49.306;8.636;2023-09-08T01:38:25;8.47;;;4.63;;
10059;SDS011;5069;49.306;8.636;2023-09-08T01:41:27;7.17;;;4.70;;
10059;SDS011;5069;49.306;8.636;2023-09-08T01:44:29;9.27;;;4.70;;
10059;SDS011;5069;49.306;8.636;2023-09-08T01:47:30;5.50;;;4.60;;
10059;SDS011;5069;49.306;8.636;2023-09-08T01:50:33;8.60;;;4.57;;
10059;SDS011;5069;49.306;8.636;2023-09-08T01:53:35;5.23;;;4.53;;
10059;SDS011;5069;49.306;8.636;2023-09-08T01:56:37;8.77;;;5.10;;
10059;SDS011;5069;49.306;8.636;2023-09-08T01:59:38;5.27;;;4.43;;
10059;SDS011;5069;49.306;8.636;2023-09-08T02:02:40;5.90;;;4.80;;
10059;SDS011;5069;49.306;8.636;2023-09-08T02:05:42;7.03;;;4.90;;
10059;SDS011;5069;49.306;8.636;2023-09-08T02:08:44;7.13;;;4.83;;
10059;SDS011;5069;49.306;8.636;2023-09-08T02:11:46;5.30;;;4.80;;
10059;SDS011;5069;49.306;8.636;2023-09-08T02:14:47;5.47;;;4.97;;
10059;SDS011;5069;49.306;8.636;2023-09-08T02:17:52;6.43;;;4.90;;
10059;SDS011;5069;49.306;8.636;2023-09-08T02:20:54;5.90;;;4.90;;
10059;SDS011;5069;49.306;8.636;2023-09-08T02:23:55;6.80;;;5.20;;
10059;SDS011;5069;49.306;8.636;2023-09-08T02:26:57;8.27;;;5.00;;
10059;SDS011;5069;49.306;8.636;2023-09-08T02:29:59;8.27;;;5.33;;
10059;SDS011;5069;49.306;8.636;2023-09-08T02:33:02;5.73;;;4.80;;
10059;SDS011;5069;49.306;8.636;2023-09-08T02:36:04;6.23;;;5.27;;
10059;SDS011;5069;49.306;8.636;2023-09-08T02:39:08;8.30;;;5.00;;
10059;SDS011;5069;49.306;8.636;2023-09-08T02:42:10;5.83;;;5.23;;
10059;SDS011;5069;49.306;8.636;2023-09-08T02:45:12;6.70;;;5.13;;
10059;SDS011;5069;49.306;8.636;2023-09-08T02:48:14;4.80;;;4.30;;
10059;SDS011;5069;49.306;8.636;2023-09-08T02:51:15;6.10;;;4.70;;
10059;SDS011;5069;49.306;8.636;2023-09-08T02:54:17;6.10;;;5.50;;
10059;SDS011;5069;49.306;8.636;2023-09-08T02:57:19;7.07;;;5.20;;
10059;SDS011;5069;49.306;8.636;2023-09-08T03:00:21;6.33;;;4.73;;
10059;SDS011;5069;49.306;8.636;2023-09-08T03:03:23;7.37;;;5.07;;
10059;SDS011;5069;49.306;8.636;2023-09-08T03:06:24;8.83;;;5.10;;
10059;SDS011;5069;49.306;8.636;2023-09-08T03:09:26;6.87;;;5.00;;
10059;SDS011;5069;49.306;8.636;2023-09-08T03:12:27;5.63;;;4.80;;
10059;SDS011;5069;49.306;8.636;2023-09-08T03:15:29;8.63;;;5.00;;
10059;SDS011;5069;49.306;8.636;2023-09-08T03:18:31;7.07;;;5.07;;
10059;SDS011;5069;49.306;8.636;2023-09-08T03:21:35;5.73;;;5.23;;
10059;SDS011;5069;49.306;8.636;2023-09-08T03:24:38;6.23;;;4.70;;
10059;SDS011;5069;49.306;8.636;2023-09-08T03:27:39;8.73;;;5.23;;
10059;SDS011;5069;49.306;8.636;2023-09-08T03:30:40;6.53;;;5.30;;
10059;SDS011;5069;49.306;8.636;2023-09-08T03:33:42;7.00;;;4.80;;
10059;SDS011;5069;49.306;8.636;2023-09-08T03:36:45;5.53;;;5.03;;
10059;SDS011;5069;49.306;8.636;2023-09-08T03:39:46;5.93;;;4.80;;
10059;SDS011;5069;49.306;8.636;2023-09-08T03:42:48;5.90;;;5.10;;
10059;SDS011;5069;49.306;8.636;2023-09-08T03:45:50;6.73;;;5.40;;
10059;SDS011;5069;49.306;8.636;2023-09-08T03:48:52;5.60;;;5.10;;
10059;SDS011;5069;49.306;8.636;2023-09-08T03:51:59;5.60;;;4.87;;
10059;SDS011;5069;49.306;8.636;2023-09-08T03:55:01;5.73;;;5.00;;
10059;SDS011;5069;49.306;8.636;2023-09-08T03:58:03;6.17;;;5.00;;
10059;SDS011;5069;49.306;8.636;2023-09-08T04:01:05;8.60;;;4.90;;
10059;SDS011;5069;49.306;8.636;2023-09-08T04:04:06;6.73;;;4.77;;
10059;SDS011;5069;49.306;8.636;2023-09-08T04:07:08;7.03;;;4.97;;
10059;SDS011;5069;49.306;8.636;2023-09-08T04:10:10;4.80;;;4.40;;
10059;SDS011;5069;49.306;8.636;2023-09-08T04:13:12;5.57;;;5.00;;
10059;SDS011;5069;49.306;8.636;2023-09-08T04:16:14;5.90;;;5.20;;
10059;SDS011;5069;49.306;8.636;2023-09-08T04:19:16;6.37;;;5.57;;
10059;SDS011;5069;49.306;8.636;2023-09-08T04:22:18;8.93;;;5.53;;
10059;SDS011;5069;49.306;8.636;2023-09-08T04:25:19;6.17;;;5.47;;
10059;SDS011;5069;49.306;8.636;2023-09-08T04:28:21;5.90;;;5.30;;
10059;SDS011;5069;49.306;8.636;2023-09-08T04:31:23;6.07;;;5.47;;
10059;SDS011;5069;49.306;8.636;2023-09-08T04:34:25;7.30;;;5.53;;
10059;SDS011;5069;49.306;8.636;2023-09-08T04:37:26;6.53;;;5.80;;
10059;SDS011;5069;49.306;8.636;2023-09-08T04:40:29;7.57;;;5.90;;
10059;SDS011;5069;49.306;8.636;2023-09-08T04:43:30;7.80;;;5.77;;
10059;SDS011;5069;49.306;8.636;2023-09-08T04:46:32;5.67;;;5.00;;
10059;SDS011;5069;49.306;8.636;2023-09-08T04:49:35;9.90;;;6.00;;
10059;SDS011;5069;49.306;8.636;2023-09-08T04:52:36;12.63;;;6.33;;
10059;SDS011;5069;49.306;8.636;2023-09-08T04:55:39;6.30;;;5.47;;
10059;SDS011;5069;49.306;8.636;2023-09-08T04:58:41;8.43;;;5.60;;
10059;SDS011;5069;49.306;8.636;2023-09-08T05:01:42;8.23;;;5.50;;
10059;SDS011;5069;49.306;8.636;2023-09-08T05:04:45;10.83;;;6.03;;
10059;SDS011;5069;49.306;8.636;2023-09-08T05:07:46;8.23;;;5.97;;
10059;SDS011;5069;49.306;8.636;2023-09-08T05:10:49;9.00;;;6.73;;
10059;SDS011;5069;49.306;8.636;2023-09-08T05:13:51;7.43;;;6.43;;
10059;SDS011;5069;49.306;8.636;2023-09-08T05:16:52;10.33;;;6.37;;
10059;SDS011;5069;49.306;8.636;2023-09-08T05:20:01;6.93;;;6.27;;
10059;SDS011;5069;49.306;8.636;2023-09-08T05:23:03;10.63;;;7.10;;
10059;SDS011;5069;49.306;8.636;2023-09-08T05:26:05;13.53;;;7.00;;
10059;SDS011;5069;49.306;8.636;2023-09-08T05:29:07;9.03;;;7.10;;
10059;SDS011;5069;49.306;8.636;2023-09-08T05:32:09;12.20;;;7.27;;
10059;SDS011;5069;49.306;8.636;2023-09-08T05:35:12;8.90;;;6.83;;
10059;SDS011;5069;49.306;8.636;2023-09-08T05:38:14;12.43;;;6.50;;
10059;SDS011;5069;49.306;8.636;2023-09-08T05:41:15;7.83;;;6.93;;
10059;SDS011;5069;49.306;8.636;2023-09-08T05:44:17;8.37;;;6.80;;
10059;SDS011;5069;49.306;8.636;2023-09-08T05:47:19;9.13;;;6.57;;
10059;SDS011;5069;49.306;8.636;2023-09-08T05:50:21;8.57;;;6.70;;
10059;SDS011;5069;49.306;8.636;2023-09-08T05:53:24;7.50;;;6.67;;
10059;SDS011;5069;49.306;8.636;2023-09-08T05:56:29;11.77;;;7.13;;
10059;SDS011;5069;49.306;8.636;2023-09-08T05:59:33;10.27;;;6.87;;
10059;SDS011;5069;49.306;8.636;2023-09-08T06:02:34;14.40;;;6.93;;
10059;SDS011;5069;49.306;8.636;2023-09-08T06:05:36;11.37;;;6.93;;
10059;SDS011;5069;49.306;8.636;2023-09-08T06:08:39;10.10;;;6.93;;
10059;SDS011;5069;49.306;8.636;2023-09-08T06:11:41;14.13;;;6.87;;
10059;SDS011;5069;49.306;8.636;2023-09-08T06:14:43;9.57;;;6.23;;
10059;SDS011;5069;49.306;8.636;2023-09-08T06:17:47;8.73;;;6.20;;
10059;SDS011;5069;49.306;8.636;2023-09-08T06:20:49;9.00;;;6.70;;
10059;SDS011;5069;49.306;8.636;2023-09-08T06:23:51;9.90;;;5.80;;
10059;SDS011;5069;49.306;8.636;2023-09-08T06:26:53;6.07;;;5.43;;
10059;SDS011;5069;49.306;8.636;2023-09-08T06:29:55;7.03;;;5.30;;
10059;SDS011;5069;49.306;8.636;2023-09-08T06:32:58;8.37;;;5.27;;
10059;SDS011;5069;49.306;8.636;2023-09-08T06:36:00;7.90;;;5.07;;
10059;SDS011;5069;49.306;8.636;2023-09-08T06:39:02;5.30;;;4.80;;
10059;SDS011;5069;49.306;8.636;2023-09-08T06:42:07;5.63;;;5.10;;
10059;SDS011;5069;49.306;8.636;2023-09-08T06:45:10;5.97;;;5.37;;
10059;SDS011;5069;49.306;8.636;2023-09-08T06:48:11;7.10;;;5.07;;
10059;SDS011;5069;49.306;8.636;2023-09-08T06:51:13;5.27;;;4.77;;
10059;SDS011;5069;49.306;8.636;2023-09-08T06:54:15;6.07;;;5.47;;
10059;SDS011;5069;49.306;8.636;2023-09-08T06:57:18;6.20;;;5.07;;
10059;SDS011;5069;49.306;8.636;2023-09-08T07:00:23;5.87;;;5.27;;
10059;SDS011;5069;49.306;8.636;2023-09-08T07:03:24;8.43;;;5.70;;
10059;SDS011;5069;49.306;8.636;2023-09-08T07:06:29;8.47;;;5.30;;
10059;SDS011;5069;49.306;8.636;2023-09-08T07:09:31;8.77;;;5.23;;
10059;SDS011;5069;49.306;8.636;2023-09-08T07:12:33;8.07;;;5.57;;
10059;SDS011;5069;49.306;8.636;2023-09-08T07:15:35;9.60;;;5.50;;
10059;SDS011;5069;49.306;8.636;2023-09-08T07:18:36;9.73;;;5.27;;
10059;SDS011;5069;49.306;8.636;2023-09-08T07:21:41;5.10;;;4.63;;
10059;SDS011;5069;49.306;8.636;2023-09-08T07:24:43;7.30;;;5.50;;
10059;SDS011;5069;49.306;8.636;2023-09-08T07:27:45;9.23;;;5.40;;
10059;SDS011;5069;49.306;8.636;2023-09-08T07:30:47;9.50;;;5.40;;
10059;SDS011;5069;49.306;8.636;2023-09-08T07:33:50;5.93;;;5.43;;
10059;SDS011;5069;49.306;8.636;2023-09-08T07:36:52;11.43;;;5.73;;
10059;SDS011;5069;49.306;8.636;2023-09-08T07:39:53;7.57;;;5.67;;
10059;SDS011;5069;49.306;8.636;2023-09-08T07:42:56;7.37;;;5.23;;
10059;SDS011;5069;49.306;8.636;2023-09-08T07:45:57;6.57;;;5.23;;
10059;SDS011;5069;49.306;8.636;2023-09-08T07:48:59;8.90;;;5.00;;
10059;SDS011;5069;49.306;8.636;2023-09-08T07:52:01;8.50;;;5.80;;
10059;SDS011;5069;49.306;8.636;2023-09-08T07:55:03;5.60;;;4.97;;
10059;SDS011;5069;49.306;8.636;2023-09-08T07:58:05;7.93;;;5.10;;
10059;SDS011;5069;49.306;8.636;2023-09-08T08:01:06;7.87;;;5.80;;
10059;SDS011;5069;49.306;8.636;2023-09-08T08:04:08;6.87;;;5.20;;
10059;SDS011;5069;49.306;8.636;2023-09-08T08:07:10;8.43;;;5.17;;
10059;SDS011;5069;49.306;8.636;2023-09-08T08:10:11;5.53;;;5.03;;
10059;SDS011;5069;49.306;8.636;2023-09-08T08:13:14;7.67;;;5.77;;
10059;SDS011;5069;49.306;8.636;2023-09-08T08:16:15;6.30;;;5.37;;
10059;SDS011;5069;49.306;8.636;2023-09-08T08:19:17;7.40;;;5.28;;
10059;SDS011;5069;49.306;8.636;2023-09-08T08:22:19;9.00;;;5.30;;
10059;SDS011;5069;49.306;8.636;2023-09-08T08:25:20;5.85;;;5.20;;
10059;SDS011;5069;49.306;8.636;2023-09-08T08:28:22;7.50;;;5.20;;
10059;SDS011;5069;49.306;8.636;2023-09-08T08:31:23;5.65;;;5.15;;
10059;SDS011;5069;49.306;8.636;2023-09-08T08:34:25;8.90;;;5.80;;
10059;SDS011;5069;49.306;8.636;2023-09-08T08:37:27;5.80;;;5.20;;
10059;SDS011;5069;49.306;8.636;2023-09-08T08:40:31;9.00;;;5.60;;
10059;SDS011;5069;49.306;8.636;2023-09-08T08:43:35;9.52;;;5.70;;
10059;SDS011;5069;49.306;8.636;2023-09-08T08:46:37;8.80;;;5.07;;
10059;SDS011;5069;49.306;8.636;2023-09-08T08:49:39;6.45;;;5.25;;
10059;SDS011;5069;49.306;8.636;2023-09-08T08:52:44;6.68;;;5.45;;
10059;SDS011;5069;49.306;8.636;2023-09-08T08:55:46;6.15;;;5.55;;
10059;SDS011;5069;49.306;8.636;2023-09-08T08:58:48;8.75;;;5.47;;
10059;SDS011;5069;49.306;8.636;2023-09-08T09:01:50;7.07;;;5.55;;
10059;SDS011;5069;49.306;8.636;2023-09-08T09:04:52;6.88;;;5.45;;
10059;SDS011;5069;49.306;8.636;2023-09-08T09:07:54;6.05;;;5.45;;
10059;SDS011;5069;49.306;8.636;2023-09-08T09:10:59;6.07;;;5.30;;
10059;SDS011;5069;49.306;8.636;2023-09-08T09:14:00;5.75;;;5.15;;
10059;SDS011;5069;49.306;8.636;2023-09-08T09:17:02;8.35;;;5.47;;
10059;SDS011;5069;49.306;8.636;2023-09-08T09:20:15;7.40;;;5.43;;
10059;SDS011;5069;49.306;8.636;2023-09-08T09:23:36;6.82;;;5.43;;
10059;SDS011;5069;49.306;8.636;2023-09-08T09:26:38;7.65;;;5.18;;
10059;SDS011;5069;49.306;8.636;2023-09-08T09:29:44;5.75;;;5.20;;
10059;SDS011;5069;49.306;8.636;2023-09-08T09:32:47;9.43;;;6.13;;
10059;SDS011;5069;49.306;8.636;2023-09-08T09:35:53;5.03;;;4.63;;
10059;SDS011;5069;49.306;8.636;2023-09-08T09:38:59;7.88;;;5.35;;
10059;SDS011;5069;49.306;8.636;2023-09-08T09:42:02;7.78;;;5.28;;
10059;SDS011;5069;49.306;8.636;2023-09-08T09:45:06;6.30;;;5.28;;
10059;SDS011;5069;49.306;8.636;2023-09-08T09:48:08;6.25;;;5.65;;
10059;SDS011;5069;49.306;8.636;2023-09-08T09:51:15;6.38;;;5.60;;
10059;SDS011;5069;49.306;8.636;2023-09-08T09:54:18;5.78;;;5.20;;
10059;SDS011;5069;49.306;8.636;2023-09-08T09:57:20;5.65;;;5.10;;
10059;SDS011;5069;49.306;8.636;2023-09-08T10:00:23;5.93;;;5.35;;
10059;SDS011;5069;49.306;8.636;2023-09-08T10:03:27;5.95;;;5.45;;
10059;SDS011;5069;49.306;8.636;2023-09-08T10:06:33;7.15;;;5.55;;
10059;SDS011;5069;49.306;8.636;2023-09-08T10:09:36;8.88;;;5.80;;
10059;SDS011;5069;49.306;8.636;2023-09-08T10:12:38;6.10;;;5.32;;
10059;SDS011;5069;49.306;8.636;2023-09-08T10:15:43;5.97;;;5.07;;
10059;SDS011;5069;49.306;8.636;2023-09-08T10:18:47;5.80;;;5.20;;
10059;SDS011;5069;49.306;8.636;2023-09-08T10:21:51;5.97;;;5.43;;
10059;SDS011;5069;49.306;8.636;2023-09-08T10:24:55;6.97;;;5.55;;
10059;SDS011;5069;49.306;8.636;2023-09-08T10:28:05;6.13;;;5.40;;
10059;SDS011;5069;49.306;8.636;2023-09-08T10:31:07;9.73;;;5.63;;
10059;SDS011;5069;49.306;8.636;2023-09-08T10:34:13;6.13;;;5.55;;
10059;SDS011;5069;49.306;8.636;2023-09-08T10:37:21;7.57;;;5.55;;
10059;SDS011;5069;49.306;8.636;2023-09-08T10:40:26;6.47;;;5.43;;
10059;SDS011;5069;49.306;8.636;2023-09-08T10:43:29;10.95;;;5.90;;
10059;SDS011;5069;49.306;8.636;2023-09-08T10:46:31;6.85;;;5.50;;
10059;SDS011;5069;49.306;8.636;2023-09-08T10:49:37;6.68;;;5.22;;
10059;SDS011;5069;49.306;8.636;2023-09-08T10:52:39;11.07;;;5.47;;
10059;SDS011;5069;49.306;8.636;2023-09-08T10:55:43;6.63;;;5.35;;
10059;SDS011;5069;49.306;8.636;2023-09-08T10:59:00;5.82;;;5.13;;
10059;SDS011;5069;49.306;8.636;2023-09-08T11:02:03;5.72;;;5.05;;
10059;SDS011;5069;49.306;8.636;2023-09-08T11:05:06;6.18;;;5.15;;
10059;SDS011;5069;49.306;8.636;2023-09-08T11:08:10;6.55;;;5.28;;
10059;SDS011;5069;49.306;8.636;2023-09-08T11:11:12;7.15;;;5.20;;
10059;SDS011;5069;49.306;8.636;2023-09-08T11:14:15;6.40;;;5.22;;
10059;SDS011;5069;49.306;8.636;2023-09-08T11:17:17;7.47;;;5.13;;
10059;SDS011;5069;49.306;8.636;2023-09-08T11:20:26;6.35;;;5.10;;
10059;SDS011;5069;49.306;8.636;2023-09-08T11:23:28;5.82;;;5.25;;
10059;SDS011;5069;49.306;8.636;2023-09-08T11:26:34;5.93;;;5.07;;
10059;SDS011;5069;49.306;8.636;2023-09-08T11:29:36;7.22;;;5.22;;
10059;SDS011;5069;49.306;8.636;2023-09-08T11:32:38;6.40;;;5.55;;
10059;SDS011;5069;49.306;8.636;2023-09-08T11:35:40;9.70;;;5.75;;
10059;SDS011;5069;49.306;8.636;2023-09-08T11:38:42;7.45;;;5.40;;
10059;SDS011;5069;49.306;8.636;2023-09-08T11:41:45;11.65;;;5.32;;
10059;SDS011;5069;49.306;8.636;2023-09-08T11:44:47;5.13;;;4.72;;
10059;SDS011;5069;49.306;8.636;2023-09-08T11:47:49;6.13;;;5.00;;
10059;SDS011;5069;49.306;8.636;2023-09-08T11:50:54;5.60;;;5.10;;
10059;SDS011;5069;49.306;8.636;2023-09-08T11:53:56;8.35;;;5.22;;
10059;SDS011;5069;49.306;8.636;2023-09-08T11:56:58;8.40;;;5.28;;
10059;SDS011;5069;49.306;8.636;2023-09-08T12:00:01;5.68;;;5.15;;
10059;SDS011;5069;49.306;8.636;2023-09-08T12:03:10;6.75;;;5.50;;
10059;SDS011;5069;49.306;8.636;2023-09-08T12:06:13;9.35;;;5.20;;
10059;SDS011;5069;49.306;8.636;2023-09-08T12:09:15;6.25;;;4.90;;
10059;SDS011;5069;49.306;8.636;2023-09-08T12:12:17;6.30;;;4.90;;
10059;SDS011;5069;49.306;8.636;2023-09-08T12:15:35;5.43;;;4.90;;
10059;SDS011;5069;49.306;8.636;2023-09-08T12:18:37;5.82;;;5.22;;
10059;SDS011;5069;49.306;8.636;2023-09-08T12:21:55;5.70;;;5.18;;
10059;SDS011;5069;49.306;8.636;2023-09-08T12:24:58;7.13;;;4.95;;
10059;SDS011;5069;49.306;8.636;2023-09-08T12:28:04;6.82;;;5.15;;
10059;SDS011;5069;49.306;8.636;2023-09-08T12:31:07;7.13;;;5.20;;
10059;SDS011;5069;49.306;8.636;2023-09-08T12:34:09;5.60;;;5.15;;
10059;SDS011;5069;49.306;8.636;2023-09-08T12:37:11;5.88;;;4.82;;
10059;SDS011;5069;49.306;8.636;2023-09-08T12:40:13;11.20;;;5.10;;
10059;SDS011;5069;49.306;8.636;2023-09-08T12:43:16;6.85;;;5.00;;
10059;SDS011;5069;49.306;8.636;2023-09-08T12:46:28;5.57;;;4.90;;
10059;SDS011;5069;49.306;8.636;2023-09-08T12:49:31;9.02;;;5.40;;
10059;SDS011;5069;49.306;8.636;2023-09-08T12:52:33;5.40;;;4.90;;
10059;SDS011;5069;49.306;8.636;2023-09-08T12:55:34;5.60;;;5.05;;
10059;SDS011;5069;49.306;8.636;2023-09-08T12:58:36;7.07;;;5.03;;
10059;SDS011;5069;49.306;8.636;2023-09-08T13:01:38;7.68;;;5.30;;
10059;SDS011;5069;49.306;8.636;2023-09-08T13:04:39;5.97;;;5.28;;
10059;SDS011;5069;49.306;8.636;2023-09-08T13:07:41;6.63;;;4.90;;
10059;SDS011;5069;49.306;8.636;2023-09-08T13:10:42;7.70;;;5.22;;
10059;SDS011;5069;49.306;8.636;2023-09-08T13:13:44;6.50;;;5.50;;
10059;SDS011;5069;49.306;8.636;2023-09-08T13:16:45;5.75;;;5.25;;
10059;SDS011;5069;49.306;8.636;2023-09-08T13:19:47;7.78;;;5.15;;
10059;SDS011;5069;49.306;8.636;2023-09-08T13:22:49;8.70;;;5.30;;
10059;SDS011;5069;49.306;8.636;2023-09-08T13:25:50;6.68;;;5.40;;
10059;SDS011;5069;49.306;8.636;2023-09-08T13:28:52;6.25;;;5.03;;
10059;SDS011;5069;49.306;8.636;2023-09-08T13:31:54;5.80;;;5.25;;
10059;SDS011;5069;49.306;8.636;2023-09-08T13:34:56;7.03;;;5.68;;
10059;SDS011;5069;49.306;8.636;2023-09-08T13:37:58;5.85;;;5.22;;
10059;SDS011;5069;49.306;8.636;2023-09-08T13:41:01;5.50;;;4.93;;
10059;SDS011;5069;49.306;8.636;2023-09-08T13:44:02;6.63;;;5.20;;
10059;SDS011;5069;49.306;8.636;2023-09-08T13:47:04;6.45;;;5.28;;
10059;SDS011;5069;49.306;8.636;2023-09-08T13:50:06;6.78;;;5.05;;
10059;SDS011;5069;49.306;8.636;2023-09-08T13:53:10;6.80;;;5.00;;
10059;SDS011;5069;49.306;8.636;2023-09-08T13:56:15;5.72;;;5.10;;
10059;SDS011;5069;49.306;8.636;2023-09-08T13:59:20;5.90;;;5.13;;
10059;SDS011;5069;49.306;8.636;2023-09-08T14:02:25;6.05;;;5.45;;
10059;SDS011;5069;49.306;8.636;2023-09-08T14:05:29;9.32;;;5.57;;
10059;SDS011;5069;49.306;8.636;2023-09-08T14:08:37;5.53;;;5.03;;
10059;SDS011;5069;49.306;8.636;2023-09-08T14:11:59;6.95;;;5.53;;
10059;SDS011;5069;49.306;8.636;2023-09-08T14:15:04;5.85;;;5.22;;
10059;SDS011;5069;49.306;8.636;2023-09-08T14:18:06;5.78;;;4.88;;
10059;SDS011;5069;49.306;8.636;2023-09-08T14:21:07;6.93;;;5.38;;
10059;SDS011;5069;49.306;8.636;2023-09-08T14:24:09;7.40;;;4.75;;
10059;SDS011;5069;49.306;8.636;2023-09-08T14:27:10;7.82;;;5.15;;
10059;SDS011;5069;49.306;8.636;2023-09-08T14:30:12;9.18;;;5.18;;
10059;SDS011;5069;49.306;8.636;2023-09-08T14:33:14;6.28;;;5.40;;
10059;SDS011;5069;49.306;8.636;2023-09-08T14:36:18;5.82;;;5.32;;
10059;SDS011;5069;49.306;8.636;2023-09-08T14:39:20;8.27;;;5.18;;
10059;SDS011;5069;49.306;8.636;2023-09-08T14:42:22;6.10;;;5.38;;
10059;SDS011;5069;49.306;8.636;2023-09-08T14:45:23;6.82;;;5.93;;
10059;SDS011;5069;49.306;8.636;2023-09-08T14:48:27;8.40;;;5.18;;
10059;SDS011;5069;49.306;8.636;2023-09-08T14:51:29;8.60;;;5.65;;
10059;SDS011;5069;49.306;8.636;2023-09-08T14:54:31;9.00;;;5.50;;
10059;SDS011;5069;49.306;8.636;2023-09-08T14:57:32;6.10;;;5.45;;
10059;SDS011;5069;49.306;8.636;2023-09-08T15:00:34;7.03;;;5.45;;
10059;SDS011;5069;49.306;8.636;2023-09-08T15:03:36;5.47;;;4.97;;
10059;SDS011;5069;49.306;8.636;2023-09-08T15:06:39;7.40;;;5.10;;
10059;SDS011;5069;49.306;8.636;2023-09-08T15:09:40;7.78;;;5.00;;
10059;SDS011;5069;49.306;8.636;2023-09-08T15:12:42;7.38;;;4.70;;
10059;SDS011;5069;49.306;8.636;2023-09-08T15:15:44;6.00;;;5.25;;
10059;SDS011;5069;49.306;8.636;2023-09-08T15:18:47;5.60;;;5.10;;
10059;SDS011;5069;49.306;8.636;2023-09-08T15:21:48;7.07;;;5.00;;
10059;SDS011;5069;49.306;8.636;2023-09-08T15:24:50;6.45;;;5.13;;
10059;SDS011;5069;49.306;8.636;2023-09-08T15:27:51;6.80;;;5.30;;
10059;SDS011;5069;49.306;8.636;2023-09-08T15:30:54;6.35;;;5.18;;
10059;SDS011;5069;49.306;8.636;2023-09-08T15:33:56;5.97;;;5.38;;
10059;SDS011;5069;49.306;8.636;2023-09-08T15:36:58;5.90;;;5.40;;
10059;SDS011;5069;49.306;8.636;2023-09-08T15:40:00;5.60;;;5.10;;
10059;SDS011;5069;49.306;8.636;2023-09-08T15:43:02;6.35;;;5.20;;
10059;SDS011;5069;49.306;8.636;2023-09-08T15:46:04;5.63;;;5.10;;
10059;SDS011;5069;49.306;8.636;2023-09-08T15:49:06;7.35;;;5.57;;
10059;SDS011;5069;49.306;8.636;2023-09-08T15:52:07;6.00;;;5.40;;
10059;SDS011;5069;49.306;8.636;2023-09-08T15:55:17;5.78;;;5.20;;
10059;SDS011;5069;49.306;8.636;2023-09-08T15:58:18;8.98;;;5.30;;
10059;SDS011;5069;49.306;8.636;2023-09-08T16:01:20;6.00;;;5.45;;
10059;SDS011;5069;49.306;8.636;2023-09-08T16:04:21;6.70;;;6.00;;
10059;SDS011;5069;49.306;8.636;2023-09-08T16:07:23;6.50;;;5.30;;
10059;SDS011;5069;49.306;8.636;2023-09-08T16:10:25;6.13;;;5.63;;
10059;SDS011;5069;49.306;8.636;2023-09-08T16:13:26;5.82;;;5.07;;
10059;SDS011;5069;49.306;8.636;2023-09-08T16:16:28;7.82;;;4.82;;
10059;SDS011;5069;49.306;8.636;2023-09-08T16:19:29;5.35;;;4.85;;
10059;SDS011;5069;49.306;8.636;2023-09-08T16:22:31;6.13;;;5.30;;
10059;SDS011;5069;49.306;8.636;2023-09-08T16:25:32;6.97;;;5.28;;
10059;SDS011;5069;49.306;8.636;2023-09-08T16:28:34;5.85;;;4.88;;
10059;SDS011;5069;49.306;8.636;2023-09-08T16:31:35;6.07;;;5.40;;
10059;SDS011;5069;49.306;8.636;2023-09-08T16:34:37;8.25;;;5.10;;
10059;SDS011;5069;49.306;8.636;2023-09-08T16:37:38;8.43;;;4.75;;
10059;SDS011;5069;49.306;8.636;2023-09-08T16:40:40;6.18;;;5.60;;
10059;SDS011;5069;49.306;8.636;2023-09-08T16:43:41;7.20;;;5.93;;
10059;SDS011;5069;49.306;8.636;2023-09-08T16:46:43;7.07;;;6.47;;
10059;SDS011;5069;49.306;8.636;2023-09-08T16:49:45;6.85;;;6.22;;
10059;SDS011;5069;49.306;8.636;2023-09-08T16:52:46;6.93;;;5.93;;
10059;SDS011;5069;49.306;8.636;2023-09-08T16:55:48;7.97;;;5.88;;
10059;SDS011;5069;49.306;8.636;2023-09-08T16:58:49;6.88;;;5.97;;
10059;SDS011;5069;49.306;8.636;2023-09-08T17:01:51;8.68;;;5.55;;
10059;SDS011;5069;49.306;8.636;2023-09-08T17:04:53;6.35;;;5.30;;
10059;SDS011;5069;49.306;8.636;2023-09-08T17:07:54;5.60;;;5.10;;
10059;SDS011;5069;49.306;8.636;2023-09-08T17:11:04;6.25;;;5.63;;
10059;SDS011;5069;49.306;8.636;2023-09-08T17:14:06;5.50;;;5.00;;
10059;SDS011;5069;49.306;8.636;2023-09-08T17:17:08;5.85;;;5.30;;
10059;SDS011;5069;49.306;8.636;2023-09-08T17:20:09;6.22;;;5.30;;
10059;SDS011;5069;49.306;8.636;2023-09-08T17:23:12;7.55;;;5.22;;
10059;SDS011;5069;49.306;8.636;2023-09-08T17:26:14;7.20;;;4.55;;
10059;SDS011;5069;49.306;8.636;2023-09-08T17:29:15;5.53;;;4.97;;
10059;SDS011;5069;49.306;8.636;2023-09-08T17:32:17;5.70;;;5.20;;
10059;SDS011;5069;49.306;8.636;2023-09-08T17:35:18;6.38;;;4.72;;
10059;SDS011;5069;49.306;8.636;2023-09-08T17:38:20;5.63;;;5.13;;
10059;SDS011;5069;49.306;8.636;2023-09-08T17:41:21;10.63;;;5.45;;
10059;SDS011;5069;49.306;8.636;2023-09-08T17:44:23;5.53;;;5.03;;
10059;SDS011;5069;49.306;8.636;2023-09-08T17:47:24;8.65;;;5.32;;
10059;SDS011;5069;49.306;8.636;2023-09-08T17:50:26;6.60;;;5.88;;
10059;SDS011;5069;49.306;8.636;2023-09-08T17:53:28;7.47;;;5.65;;
10059;SDS011;5069;49.306;8.636;2023-09-08T17:56:29;7.80;;;5.80;;
10059;SDS011;5069;49.306;8.636;2023-09-08T17:59:30;6.93;;;6.13;;
10059;SDS011;5069;49.306;8.636;2023-09-08T18:02:32;9.13;;;5.45;;
10059;SDS011;5069;49.306;8.636;2023-09-08T18:05:34;6.50;;;5.90;;
10059;SDS011;5069;49.306;8.636;2023-09-08T18:08:36;5.90;;;5.40;;
10059;SDS011;5069;49.306;8.636;2023-09-08T18:11:38;9.55;;;6.45;;
10059;SDS011;5069;49.306;8.636;2023-09-08T18:14:39;7.60;;;5.97;;
10059;SDS011;5069;49.306;8.636;2023-09-08T18:17:41;7.75;;;6.65;;
10059;SDS011;5069;49.306;8.636;2023-09-08T18:20:45;6.57;;;5.97;;
10059;SDS011;5069;49.306;8.636;2023-09-08T18:23:46;7.30;;;6.60;;
10059;SDS011;5069;49.306;8.636;2023-09-08T18:26:49;8.25;;;7.00;;
10059;SDS011;5069;49.306;8.636;2023-09-08T18:29:50;9.10;;;7.10;;
10059;SDS011;5069;49.306;8.636;2023-09-08T18:32:52;7.28;;;6.53;;
10059;SDS011;5069;49.306;8.636;2023-09-08T18:35:53;10.25;;;7.25;;